createdAt,value
2023-04-08T00:01:18.801Z,101165.16
2023-04-08T00:03:46.300Z,101167.94
2023-04-08T00:06:13.420Z,101160.06
2023-04-08T00:08:41.931Z,101165.31
2023-04-08T00:11:08.883Z,101165.59
2023-04-08T00:13:36.048Z,101173.63
2023-04-08T00:16:03.282Z,101169.19
2023-04-08T00:18:30.331Z,101168.44
2023-04-08T00:21:05.732Z,101171.28
2023-04-08T00:23:32.802Z,101168.66
2023-04-08T00:25:59.753Z,101172.44
2023-04-08T00:28:26.843Z,101173.53
2023-04-08T00:30:54.759Z,101169.22
2023-04-08T00:33:22.247Z,101172.91
2023-04-08T00:35:49.722Z,101166.88
2023-04-08T00:38:17.084Z,101172.47
2023-04-08T00:40:44.214Z,101169.16
2023-04-08T00:43:11.630Z,101180.13
2023-04-08T00:45:39.048Z,101171.41
2023-04-08T00:48:06.449Z,101170.88
2023-04-08T00:50:33.576Z,101173.06
2023-04-08T00:53:00.614Z,101165.22
2023-04-08T00:55:27.642Z,101174.34
2023-04-08T00:57:56.998Z,101168.19
2023-04-08T01:00:24.618Z,101176.31
2023-04-08T01:03:23.281Z,101184.31
2023-04-08T01:05:57.143Z,101182.66
2023-04-08T01:08:27.991Z,101193.50
2023-04-08T01:11:01.198Z,101197.19
2023-04-08T01:13:31.837Z,101185.03
2023-04-08T01:15:59.662Z,101186.97
2023-04-08T01:18:27.165Z,101181.88
2023-04-08T01:20:55.787Z,101187.38
2023-04-08T01:23:41.467Z,101187.63
2023-04-08T01:26:11.658Z,101181.56
2023-04-08T01:28:41.080Z,101181.72
2023-04-08T01:31:08.780Z,101178.34
2023-04-08T01:33:37.354Z,101180.47
2023-04-08T01:36:06.132Z,101173.75
2023-04-08T01:38:34.617Z,101174.91
2023-04-08T01:41:02.398Z,101174.31
2023-04-08T01:43:32.307Z,101178.03
2023-04-08T01:46:00.726Z,101175.44
2023-04-08T01:48:28.793Z,101177.31
2023-04-08T01:50:57.919Z,101176.56
2023-04-08T01:53:25.060Z,101174.81
2023-04-08T01:56:04.006Z,101172.22
2023-04-08T01:58:39.294Z,101169.56
2023-04-08T02:01:13.924Z,101173.09
2023-04-08T02:03:45.049Z,101172.13
2023-04-08T02:06:14.346Z,101174.81
2023-04-08T02:08:41.310Z,101178.28
2023-04-08T02:11:08.291Z,101172.94
2023-04-08T02:13:35.436Z,101171.13
2023-04-08T02:16:24.955Z,101166.88
2023-04-08T02:18:59.663Z,101165.94
2023-04-08T02:21:41.422Z,101167.66
2023-04-08T02:24:09.746Z,101164.84
2023-04-08T02:26:38.831Z,101163.28
2023-04-08T02:29:08.473Z,101157.59
2023-04-08T02:31:36.476Z,101164.09
2023-04-08T02:34:06.485Z,101160.41
2023-04-08T02:36:34.349Z,101165.25
2023-04-08T02:39:04.062Z,101173.09
2023-04-08T02:41:31.536Z,101168.84
2023-04-08T02:43:58.871Z,101170.66
2023-04-08T02:46:25.950Z,101165.34
2023-04-08T02:48:53.783Z,101168.72
2023-04-08T02:51:21.083Z,101172.25
2023-04-08T02:53:48.082Z,101171.28
2023-04-08T02:56:15.102Z,101172.00
2023-04-08T02:58:42.140Z,101171.84
2023-04-08T03:01:09.645Z,101181.63
2023-04-08T03:03:37.480Z,101169.03
2023-04-08T03:06:05.020Z,101175.97
2023-04-08T03:08:32.760Z,101171.41
2023-04-08T03:10:59.753Z,101181.13
2023-04-08T03:13:26.754Z,101178.31
2023-04-08T03:15:53.833Z,101178.28
2023-04-08T03:18:21.536Z,101180.84
2023-04-08T03:20:48.688Z,101176.38
2023-04-08T03:23:16.416Z,101177.25
2023-04-08T03:25:44.467Z,101179.94
2023-04-08T03:28:11.392Z,101193.28
2023-04-08T03:30:38.530Z,101181.72
2023-04-08T03:33:08.147Z,101185.28
2023-04-08T03:35:35.684Z,101190.66
2023-04-08T03:38:02.881Z,101190.75
2023-04-08T03:40:30.059Z,101195.28
2023-04-08T03:42:57.130Z,101197.16
2023-04-08T03:45:24.453Z,101197.25
2023-04-08T03:47:53.742Z,101189.38
2023-04-08T03:50:21.052Z,101190.34
2023-04-08T03:52:47.992Z,101197.47
2023-04-08T03:55:15.398Z,101197.47
2023-04-08T03:57:44.254Z,101194.94
2023-04-08T04:00:12.818Z,101198.63
2023-04-08T04:02:40.128Z,101204.91
2023-04-08T04:05:08.148Z,101203.16
2023-04-08T04:07:35.141Z,101205.97
2023-04-08T04:10:03.548Z,101206.97
2023-04-08T04:12:30.584Z,101211.53
2023-04-08T04:14:57.642Z,101212.72
2023-04-08T04:17:25.035Z,101203.94
2023-04-08T04:19:52.960Z,101200.53
2023-04-08T04:22:19.989Z,101196.22
2023-04-08T04:24:48.968Z,101193.69
2023-04-08T04:27:18.328Z,101188.28
2023-04-08T04:29:45.297Z,101196.22
2023-04-08T04:32:12.361Z,101189.16
2023-04-08T04:34:39.492Z,101196.28
2023-04-08T04:37:06.638Z,101195.50
2023-04-08T04:39:33.738Z,101198.06
2023-04-08T04:42:01.101Z,101203.47
2023-04-08T04:44:28.315Z,101202.63
2023-04-08T04:46:55.345Z,101199.09
2023-04-08T04:49:22.683Z,101208.00
2023-04-08T04:51:49.692Z,101192.09
2023-04-08T04:54:16.729Z,101204.75
2023-04-08T04:56:43.675Z,101206.50
2023-04-08T04:59:10.662Z,101203.00
2023-04-08T05:01:37.819Z,101204.84
2023-04-08T05:04:04.901Z,101215.56
2023-04-08T05:06:32.006Z,101220.03
2023-04-08T05:08:59.105Z,101219.25
2023-04-08T05:11:26.200Z,101221.03
2023-04-08T05:13:53.150Z,101219.41
2023-04-08T05:16:20.468Z,101223.88
2023-04-08T05:18:47.605Z,101221.34
2023-04-08T05:21:14.822Z,101224.06
2023-04-08T05:23:41.877Z,101225.88
2023-04-08T05:26:09.005Z,101237.34
2023-04-08T05:28:36.266Z,101233.13
2023-04-08T05:31:03.505Z,101239.25
2023-04-08T05:33:30.604Z,101240.19
2023-04-08T05:35:58.056Z,101248.41
2023-04-08T05:38:25.310Z,101247.25
2023-04-08T05:40:52.564Z,101239.19
2023-04-08T05:43:19.572Z,101240.78
2023-04-08T05:45:46.874Z,101233.59
2023-04-08T05:48:13.975Z,101236.03
2023-04-08T05:50:41.367Z,101232.47
2023-04-08T05:53:08.430Z,101237.03
2023-04-08T05:55:35.796Z,101243.31
2023-04-08T05:58:03.011Z,101238.56
2023-04-08T06:00:32.907Z,101243.75
2023-04-08T06:03:04.557Z,101248.00
2023-04-08T06:05:32.179Z,101256.94
2023-04-08T06:07:59.338Z,101250.66
2023-04-08T06:10:26.368Z,101254.41
2023-04-08T06:12:53.342Z,101259.56
2023-04-08T06:15:21.558Z,101261.91
2023-04-08T06:17:48.617Z,101259.19
2023-04-08T06:20:15.595Z,101255.41
2023-04-08T06:22:42.549Z,101261.41
2023-04-08T06:25:10.261Z,101257.66
2023-04-08T06:27:37.223Z,101255.72
2023-04-08T06:30:04.566Z,101258.16
2023-04-08T06:32:31.832Z,101253.69
2023-04-08T06:34:58.962Z,101253.56
2023-04-08T06:37:26.121Z,101256.06
2023-04-08T06:39:53.007Z,101252.41
2023-04-08T06:42:20.920Z,101257.78
2023-04-08T06:45:02.542Z,101262.06
2023-04-08T06:47:29.571Z,101257.03
2023-04-08T06:49:57.189Z,101255.22
2023-04-08T06:52:24.125Z,101257.94
2023-04-08T06:54:51.172Z,101258.31
2023-04-08T06:57:18.379Z,101258.94
2023-04-08T06:59:45.520Z,101261.47
2023-04-08T07:02:12.617Z,101265.59
2023-04-08T07:04:39.592Z,101263.66
2023-04-08T07:07:07.326Z,101269.84
2023-04-08T07:09:36.996Z,101266.78
2023-04-08T07:12:05.066Z,101274.81
2023-04-08T07:14:32.204Z,101270.56
2023-04-08T07:16:59.460Z,101273.41
2023-04-08T07:19:27.089Z,101279.16
2023-04-08T07:21:54.441Z,101283.19
2023-04-08T07:24:21.553Z,101284.63
2023-04-08T07:26:48.501Z,101280.84
2023-04-08T07:29:15.943Z,101283.47
2023-04-08T07:31:43.997Z,101291.94
2023-04-08T07:34:11.401Z,101286.44
2023-04-08T07:36:39.267Z,101286.53
2023-04-08T07:39:06.610Z,101282.31
2023-04-08T07:41:34.155Z,101285.47
2023-04-08T07:44:01.435Z,101282.44
2023-04-08T07:46:28.738Z,101290.88
2023-04-08T07:48:56.035Z,101283.09
2023-04-08T07:51:23.283Z,101285.44
2023-04-08T07:53:50.512Z,101293.06
2023-04-08T07:56:18.644Z,101290.09
2023-04-08T07:58:47.046Z,101288.28
2023-04-08T08:01:25.435Z,101288.97
2023-04-08T08:03:55.872Z,101283.16
2023-04-08T08:06:23.080Z,101289.13
2023-04-08T08:08:50.051Z,101293.38
2023-04-08T08:11:17.216Z,101282.56
2023-04-08T08:13:44.702Z,101285.41
2023-04-08T08:16:12.225Z,101278.69
2023-04-08T08:18:41.068Z,101285.44
2023-04-08T08:21:09.341Z,101283.97
2023-04-08T08:23:37.898Z,101287.16
2023-04-08T08:26:10.295Z,101288.47
2023-04-08T08:28:39.100Z,101289.75
2023-04-08T08:31:06.880Z,101289.41
2023-04-08T08:33:34.281Z,101292.63
2023-04-08T08:36:02.486Z,101294.09
2023-04-08T08:38:30.062Z,101293.63
2023-04-08T08:40:59.174Z,101293.84
2023-04-08T08:43:27.714Z,101290.56
2023-04-08T08:45:55.114Z,101296.16
2023-04-08T08:48:23.109Z,101305.47
2023-04-08T08:50:50.483Z,101300.13
2023-04-08T08:53:19.710Z,101292.31
2023-04-08T08:58:17.566Z,101292.44
2023-04-08T09:00:45.277Z,101289.97
2023-04-08T09:03:29.977Z,101293.75
2023-04-08T09:06:01.194Z,101292.34
2023-04-08T09:08:37.063Z,101290.81
2023-04-08T09:11:21.919Z,101296.09
2023-04-08T09:13:49.701Z,101291.00
2023-04-08T09:16:20.023Z,101288.63
2023-04-08T09:18:49.329Z,101285.66
2023-04-08T09:21:18.070Z,101282.13
2023-04-08T09:23:53.039Z,101283.09
2023-04-08T09:26:27.520Z,101282.41
2023-04-08T09:29:18.052Z,101285.03
2023-04-08T09:31:56.497Z,101277.25
2023-04-08T09:34:24.716Z,101276.09
2023-04-08T09:36:52.726Z,101275.03
2023-04-08T09:39:20.543Z,101274.28
2023-04-08T09:41:52.405Z,101271.28
2023-04-08T09:44:21.854Z,101271.41
2023-04-08T09:47:09.867Z,101262.47
2023-04-08T09:50:04.318Z,101265.72
2023-04-08T09:52:34.524Z,101257.84
2023-04-08T09:55:10.508Z,101262.72
2023-04-08T09:57:42.664Z,101262.31
2023-04-08T10:00:17.919Z,101263.53
2023-04-08T10:03:03.416Z,101255.53
2023-04-08T10:05:31.718Z,101255.00
2023-04-08T10:07:59.230Z,101255.25
2023-04-08T10:10:27.485Z,101261.84
2023-04-08T10:12:55.340Z,101258.94
2023-04-08T10:15:30.908Z,101255.72
2023-04-08T10:18:06.778Z,101250.69
2023-04-08T10:20:37.063Z,101255.75
2023-04-08T10:23:07.524Z,101253.66
2023-04-08T10:25:38.886Z,101248.91
2023-04-08T10:28:12.001Z,101250.28
2023-04-08T10:30:50.419Z,101245.81
2023-04-08T10:33:29.692Z,101248.94
2023-04-08T10:36:12.661Z,101245.25
2023-04-08T10:38:42.257Z,101246.88
2023-04-08T10:41:14.409Z,101243.75
2023-04-08T10:43:42.166Z,101242.34
2023-04-08T10:46:12.077Z,101235.22
2023-04-08T10:48:39.413Z,101236.09
2023-04-08T10:51:06.837Z,101228.97
2023-04-08T10:53:41.743Z,101227.97
2023-04-08T10:56:15.298Z,101225.13
2023-04-08T10:58:55.173Z,101225.56
2023-04-08T11:01:23.001Z,101224.66
2023-04-08T11:03:51.033Z,101223.13
2023-04-08T11:06:19.522Z,101216.19
2023-04-08T11:08:47.472Z,101222.13
2023-04-08T11:11:19.281Z,101221.31
2023-04-08T11:13:53.185Z,101207.22
2023-04-08T11:16:24.373Z,101214.63
2023-04-08T11:18:52.033Z,101205.09
2023-04-08T11:21:19.523Z,101207.31
2023-04-08T11:23:51.263Z,101206.00
2023-04-08T11:26:20.192Z,101198.38
2023-04-08T11:28:51.875Z,101189.28
2023-04-08T11:31:23.567Z,101196.56
2023-04-08T11:33:56.260Z,101194.25
2023-04-08T11:36:23.475Z,101185.31
2023-04-08T11:38:50.708Z,101188.38
2023-04-08T11:41:18.208Z,101182.31
2023-04-08T11:43:53.458Z,101190.41
2023-04-08T11:46:20.736Z,101183.03
2023-04-08T11:49:06.280Z,101175.06
2023-04-08T11:51:35.548Z,101179.72
2023-04-08T11:54:08.997Z,101178.59
2023-04-08T11:56:47.120Z,101174.19
2023-04-08T11:59:15.319Z,101167.56
2023-04-08T12:01:44.031Z,101159.06
2023-04-08T12:04:11.391Z,101160.41
2023-04-08T12:06:38.590Z,101153.78
2023-04-08T12:09:05.534Z,101141.94
2023-04-08T12:11:32.666Z,101155.56
2023-04-08T12:13:59.921Z,101149.75
2023-04-08T12:16:27.412Z,101151.16
2023-04-08T12:18:54.713Z,101146.75
2023-04-08T12:21:22.028Z,101139.84
2023-04-08T12:23:49.487Z,101135.66
2023-04-08T12:26:16.636Z,101137.75
2023-04-08T12:28:43.675Z,101139.44
2023-04-08T12:31:10.772Z,101130.41
2023-04-08T12:33:37.794Z,101128.56
2023-04-08T12:36:04.991Z,101124.22
2023-04-08T12:38:32.015Z,101127.09
2023-04-08T12:41:00.002Z,101123.22
2023-04-08T12:43:27.531Z,101123.00
2023-04-08T12:45:54.829Z,101125.19
2023-04-08T12:48:21.907Z,101120.25
2023-04-08T12:50:48.898Z,101121.66
2023-04-08T12:53:16.059Z,101123.00
2023-04-08T12:55:44.525Z,101118.94
2023-04-08T12:58:11.870Z,101125.31
2023-04-08T13:00:39.040Z,101114.50
2023-04-08T13:03:08.116Z,101116.53
2023-04-08T13:05:43.398Z,101111.16
2023-04-08T13:08:14.740Z,101105.44
2023-04-08T13:10:42.623Z,101100.75
2023-04-08T13:13:09.684Z,101105.91
2023-04-08T13:15:37.005Z,101100.78
2023-04-08T13:18:04.991Z,101101.94
2023-04-08T13:20:33.783Z,101098.13
2023-04-08T13:23:01.689Z,101093.81
2023-04-08T13:25:28.963Z,101096.81
2023-04-08T13:27:56.146Z,101085.56
2023-04-08T13:30:23.255Z,101088.84
2023-04-08T13:32:50.485Z,101083.47
2023-04-08T13:35:17.871Z,101078.47
2023-04-08T13:37:44.838Z,101075.34
2023-04-08T13:40:12.315Z,101074.34
2023-04-08T13:42:39.464Z,101073.50
2023-04-08T13:45:07.339Z,101078.22
2023-04-08T13:47:35.879Z,101063.16
2023-04-08T13:50:06.354Z,101075.13
2023-04-08T13:52:33.644Z,101067.69
2023-04-08T13:55:00.895Z,101067.25
2023-04-08T13:57:28.474Z,101061.56
2023-04-08T13:59:55.728Z,101058.41
2023-04-08T14:02:23.500Z,101055.44
2023-04-08T14:04:50.731Z,101058.88
2023-04-08T14:07:18.924Z,101063.84
2023-04-08T14:09:46.268Z,101062.72
2023-04-08T14:12:13.757Z,101055.88
2023-04-08T14:14:40.872Z,101048.41
2023-04-08T14:17:07.829Z,101048.28
2023-04-08T14:19:35.279Z,101050.44
2023-04-08T14:22:03.283Z,101053.53
2023-04-08T14:24:30.462Z,101048.00
2023-04-08T14:26:58.373Z,101046.25
2023-04-08T14:29:27.318Z,101043.53
2023-04-08T14:31:54.963Z,101048.97
2023-04-08T14:34:22.272Z,101044.13
2023-04-08T14:36:49.425Z,101042.13
2023-04-08T14:39:16.510Z,101040.44
2023-04-08T14:41:43.572Z,101041.72
2023-04-08T14:44:10.581Z,101042.41
2023-04-08T14:46:37.707Z,101037.72
2023-04-08T14:49:05.044Z,101037.56
2023-04-08T14:51:33.083Z,101046.25
2023-04-08T14:54:00.286Z,101039.13
2023-04-08T14:56:27.317Z,101038.56
2023-04-08T14:58:55.693Z,101036.88
2023-04-08T15:01:23.007Z,101046.88
2023-04-08T15:03:50.519Z,101038.84
2023-04-08T15:06:18.706Z,101045.13
2023-04-08T15:08:45.957Z,101042.88
2023-04-08T15:11:13.250Z,101044.16
2023-04-08T15:13:40.704Z,101040.16
2023-04-08T15:16:08.100Z,101040.00
2023-04-08T15:18:36.247Z,101041.88
2023-04-08T15:21:03.550Z,101035.31
2023-04-08T15:23:31.761Z,101040.44
2023-04-08T15:25:58.744Z,101039.59
2023-04-08T15:28:27.430Z,101037.88
2023-04-08T15:30:54.687Z,101037.75
2023-04-08T15:33:21.677Z,101039.59
2023-04-08T15:35:48.850Z,101043.44
2023-04-08T15:38:16.244Z,101039.13
2023-04-08T15:40:44.702Z,101037.28
2023-04-08T15:43:12.557Z,101042.59
2023-04-08T15:45:44.342Z,101043.28
2023-04-08T15:48:14.401Z,101041.00
2023-04-08T15:50:42.392Z,101041.44
2023-04-08T15:53:09.668Z,101048.09
2023-04-08T15:55:41.074Z,101043.25
2023-04-08T15:58:08.287Z,101042.56
2023-04-08T16:00:35.415Z,101043.69
2023-04-08T16:03:05.555Z,101044.81
2023-04-08T16:05:36.126Z,101046.56
2023-04-08T16:08:04.629Z,101047.69
2023-04-08T16:10:31.852Z,101047.97
2023-04-08T16:12:59.324Z,101055.53
2023-04-08T16:15:26.770Z,101046.09
2023-04-08T16:17:54.211Z,101048.34
2023-04-08T16:20:21.740Z,101057.47
2023-04-08T16:22:50.180Z,101055.22
2023-04-08T16:25:17.673Z,101061.03
2023-04-08T16:27:44.760Z,101068.28
2023-04-08T16:30:12.084Z,101068.81
2023-04-08T16:32:39.660Z,101073.06
2023-04-08T16:35:07.144Z,101074.47
2023-04-08T16:37:34.849Z,101077.94
2023-04-08T16:40:04.011Z,101076.66
2023-04-08T16:42:31.361Z,101092.16
2023-04-08T16:44:59.573Z,101089.03
2023-04-08T16:47:26.856Z,101093.81
2023-04-08T16:49:53.974Z,101098.81
2023-04-08T16:52:21.089Z,101099.19
2023-04-08T16:54:48.300Z,101104.41
2023-04-08T16:57:16.641Z,101094.13
2023-04-08T16:59:43.779Z,101109.63
2023-04-08T17:02:11.092Z,101109.28
2023-04-08T17:04:38.163Z,101105.28
2023-04-08T17:07:05.192Z,101103.69
2023-04-08T17:09:32.261Z,101102.09
2023-04-08T17:11:59.564Z,101110.38
2023-04-08T17:14:27.805Z,101103.63
2023-04-08T17:16:55.855Z,101102.78
2023-04-08T17:19:23.270Z,101111.25
2023-04-08T17:21:50.788Z,101110.91
2023-04-08T17:24:18.568Z,101110.22
2023-04-08T17:26:46.385Z,101115.03
2023-04-08T17:29:13.384Z,101125.94
2023-04-08T17:31:41.398Z,101127.03
2023-04-08T17:34:08.615Z,101131.13
2023-04-08T17:36:35.690Z,101128.69
2023-04-08T17:39:02.690Z,101138.16
2023-04-08T17:41:38.877Z,101146.50
2023-04-08T17:44:06.977Z,101162.13
2023-04-08T17:46:33.989Z,101164.06
2023-04-08T17:49:01.316Z,101187.56
2023-04-08T17:51:30.343Z,101225.28
2023-04-08T17:53:57.418Z,101237.69
2023-04-08T17:56:24.898Z,101244.75
2023-04-08T17:58:51.811Z,101257.03
2023-04-08T18:01:19.654Z,101254.56
2023-04-08T18:03:47.268Z,101271.59
2023-04-08T18:06:14.692Z,101266.22
2023-04-08T18:08:41.963Z,101278.50
2023-04-08T18:11:09.214Z,101276.56
2023-04-08T18:13:36.238Z,101266.22
2023-04-08T18:16:04.744Z,101258.50
2023-04-08T18:18:31.915Z,101244.69
2023-04-08T18:20:59.247Z,101243.28
2023-04-08T18:23:27.311Z,101235.75
2023-04-08T18:25:54.213Z,101236.53
2023-04-08T18:28:23.134Z,101244.50
2023-04-08T18:30:53.348Z,101265.59
2023-04-08T18:33:20.708Z,101273.38
2023-04-08T18:35:47.803Z,101279.59
2023-04-08T18:38:15.003Z,101284.78
2023-04-08T18:40:45.610Z,101295.63
2023-04-08T18:43:13.758Z,101294.00
2023-04-08T18:45:41.467Z,101304.75
2023-04-08T18:48:08.969Z,101306.16
2023-04-08T18:50:36.113Z,101309.16
2023-04-08T18:53:03.281Z,101314.94
2023-04-08T18:55:32.668Z,101315.66
2023-04-08T18:57:59.709Z,101314.31
2023-04-08T19:00:27.016Z,101320.25
2023-04-08T19:02:54.290Z,101333.19
2023-04-08T19:05:21.515Z,101337.91
2023-04-08T19:07:48.901Z,101349.84
2023-04-08T19:10:16.137Z,101342.50
2023-04-08T19:12:43.128Z,101348.69
2023-04-08T19:15:10.800Z,101360.97
2023-04-08T19:17:37.803Z,101357.94
2023-04-08T19:20:06.326Z,101353.41
2023-04-08T19:22:33.613Z,101362.31
2023-04-08T19:25:00.816Z,101356.38
2023-04-08T19:27:27.944Z,101366.34
2023-04-08T19:29:54.970Z,101358.28
2023-04-08T19:32:22.039Z,101360.75
2023-04-08T19:34:49.161Z,101370.28
2023-04-08T19:37:16.330Z,101364.31
2023-04-08T19:39:43.319Z,101379.09
2023-04-08T19:42:12.106Z,101374.50
2023-04-08T19:44:39.105Z,101372.84
2023-04-08T19:47:06.164Z,101361.44
2023-04-08T19:49:33.515Z,101361.22
2023-04-08T19:52:01.234Z,101348.09
2023-04-08T19:54:30.391Z,101345.00
2023-04-08T19:56:58.530Z,101349.22
2023-04-08T19:59:25.903Z,101349.22
2023-04-08T20:01:53.572Z,101358.25
2023-04-08T20:04:21.052Z,101365.66
2023-04-08T20:06:49.071Z,101372.47
2023-04-08T20:09:16.229Z,101378.22
2023-04-08T20:11:43.579Z,101377.56
2023-04-08T20:14:10.931Z,101383.34
2023-04-08T20:16:38.618Z,101389.34
2023-04-08T20:19:05.754Z,101384.75
2023-04-08T20:21:32.935Z,101387.34
2023-04-08T20:24:00.119Z,101391.78
2023-04-08T20:26:27.108Z,101395.97
2023-04-08T20:28:57.028Z,101395.31
2023-04-08T20:31:25.571Z,101403.69
2023-04-08T20:33:53.411Z,101396.66
2023-04-08T20:36:20.767Z,101395.91
2023-04-08T20:38:47.807Z,101400.59
2023-04-08T20:41:20.141Z,101401.84
2023-04-08T20:43:47.285Z,101411.91
2023-04-08T20:46:14.463Z,101410.94
2023-04-08T20:48:42.089Z,101425.16
2023-04-08T20:51:09.853Z,101416.72
2023-04-08T20:53:37.664Z,101418.09
2023-04-08T20:56:05.212Z,101418.19
2023-04-08T20:58:32.662Z,101429.81
2023-04-08T21:01:00.497Z,101425.66
2023-04-08T21:03:28.218Z,101433.72
2023-04-08T21:05:56.330Z,101430.00
2023-04-08T21:08:23.661Z,101418.78
2023-04-08T21:10:52.070Z,101426.03
2023-04-08T21:13:19.225Z,101429.69
2023-04-08T21:15:46.522Z,101435.06
2023-04-08T21:18:13.654Z,101437.25
2023-04-08T21:20:41.146Z,101437.34
2023-04-08T21:23:08.339Z,101437.50
2023-04-08T21:25:35.331Z,101433.47
2023-04-08T21:28:02.258Z,101438.34
2023-04-08T21:30:29.295Z,101444.75
2023-04-08T21:32:56.747Z,101447.38
2023-04-08T21:35:24.026Z,101447.97
2023-04-08T21:37:51.181Z,101449.47
2023-04-08T21:40:18.558Z,101446.72
2023-04-08T21:42:45.701Z,101446.59
2023-04-08T21:45:12.745Z,101446.59
2023-04-08T21:47:39.770Z,101456.38
2023-04-08T21:50:08.098Z,101449.47
2023-04-08T21:52:36.772Z,101451.41
2023-04-08T21:55:04.618Z,101450.16
2023-04-08T21:57:31.859Z,101451.50
2023-04-08T21:59:58.863Z,101451.59
2023-04-08T22:02:26.226Z,101452.53
2023-04-08T22:04:53.605Z,101444.75
2023-04-08T22:07:20.862Z,101457.75
2023-04-08T22:09:47.851Z,101458.78
2023-04-08T22:12:15.491Z,101459.72
2023-04-08T22:14:42.758Z,101462.50
2023-04-08T22:17:10.349Z,101454.63
2023-04-08T22:19:37.650Z,101454.78
2023-04-08T22:22:04.668Z,101447.19
2023-04-08T22:24:31.706Z,101462.59
2023-04-08T22:26:58.847Z,101453.75
2023-04-08T22:29:26.090Z,101454.78
2023-04-08T22:31:53.163Z,101454.84
2023-04-08T22:34:20.532Z,101454.16
2023-04-08T22:36:47.583Z,101458.88
2023-04-08T22:39:14.562Z,101459.06
2023-04-08T22:41:41.564Z,101460.94
2023-04-08T22:44:08.686Z,101454.16
2023-04-08T22:46:36.573Z,101453.47
2023-04-08T22:49:04.076Z,101454.16
2023-04-08T22:51:31.246Z,101447.72
2023-04-08T22:53:58.279Z,101447.72
2023-04-08T22:56:26.749Z,101446.91
2023-04-08T22:58:54.127Z,101455.44
2023-04-08T23:01:22.220Z,101448.22
2023-04-08T23:03:50.016Z,101462.88
2023-04-08T23:06:17.210Z,101463.03
2023-04-08T23:08:44.237Z,101457.41
2023-04-08T23:11:11.334Z,101457.81
2023-04-08T23:13:38.751Z,101456.06
2023-04-08T23:16:06.935Z,101458.50
2023-04-08T23:18:35.337Z,101464.41
2023-04-08T23:21:03.055Z,101461.63
2023-04-08T23:23:30.307Z,101466.53
2023-04-08T23:25:57.309Z,101466.38
2023-04-08T23:28:24.278Z,101465.06
2023-04-08T23:30:51.189Z,101474.16
2023-04-08T23:33:18.371Z,101475.81
2023-04-08T23:35:45.528Z,101475.09
2023-04-08T23:38:12.501Z,101469.66
2023-04-08T23:40:39.796Z,101468.59
2023-04-08T23:43:06.815Z,101467.31
2023-04-08T23:45:34.067Z,101468.13
2023-04-08T23:48:01.248Z,101477.94
2023-04-08T23:50:28.261Z,101474.81
2023-04-08T23:52:55.330Z,101473.63
2023-04-08T23:55:22.264Z,101475.34
2023-04-08T23:57:50.788Z,101472.34
